sensor_id;sensor_type;location;lat;lon;timestamp;P1;durP1;ratioP1;P2;durP2;ratioP2
59054;SDS011;44845;51.444;7.460;2023-01-29T00:00:38;36.72;;;20.90;;
59054;SDS011;44845;51.444;7.460;2023-01-29T00:03:03;39.45;;;22.20;;
59054;SDS011;44845;51.444;7.460;2023-01-29T00:05:29;40.50;;;21.60;;
59054;SDS011;44845;51.444;7.460;2023-01-29T00:07:55;43.00;;;22.65;;
59054;SDS011;44845;51.444;7.460;2023-01-29T00:10:20;35.70;;;20.80;;
59054;SDS011;44845;51.444;7.460;2023-01-29T00:12:46;44.58;;;22.10;;
59054;SDS011;44845;51.444;7.460;2023-01-29T00:15:11;37.35;;;21.60;;
59054;SDS011;44845;51.444;7.460;2023-01-29T00:17:36;37.33;;;20.25;;
59054;SDS011;44845;51.444;7.460;2023-01-29T00:20:02;41.53;;;21.98;;
59054;SDS011;44845;51.444;7.460;2023-01-29T00:22:28;42.92;;;21.08;;
59054;SDS011;44845;51.444;7.460;2023-01-29T00:24:54;40.60;;;21.80;;
59054;SDS011;44845;51.444;7.460;2023-01-29T00:27:19;40.25;;;21.95;;
59054;SDS011;44845;51.444;7.460;2023-01-29T00:29:45;38.72;;;21.23;;
59054;SDS011;44845;51.444;7.460;2023-01-29T00:32:31;38.78;;;21.25;;
59054;SDS011;44845;51.444;7.460;2023-01-29T00:34:56;40.80;;;22.40;;
59054;SDS011;44845;51.444;7.460;2023-01-29T00:37:21;42.92;;;22.17;;
59054;SDS011;44845;51.444;7.460;2023-01-29T00:39:47;37.17;;;20.75;;
59054;SDS011;44845;51.444;7.460;2023-01-29T00:42:12;39.97;;;22.10;;
59054;SDS011;44845;51.444;7.460;2023-01-29T00:44:56;39.28;;;21.42;;
59054;SDS011;44845;51.444;7.460;2023-01-29T00:47:21;44.28;;;22.08;;
59054;SDS011;44845;51.444;7.460;2023-01-29T00:50:03;38.13;;;21.70;;
59054;SDS011;44845;51.444;7.460;2023-01-29T00:52:31;39.53;;;21.35;;
59054;SDS011;44845;51.444;7.460;2023-01-29T00:54:57;39.40;;;21.15;;
59054;SDS011;44845;51.444;7.460;2023-01-29T00:57:25;37.22;;;21.33;;
59054;SDS011;44845;51.444;7.460;2023-01-29T00:59:51;40.40;;;22.48;;
59054;SDS011;44845;51.444;7.460;2023-01-29T01:02:17;37.78;;;21.25;;
59054;SDS011;44845;51.444;7.460;2023-01-29T01:05:01;44.72;;;23.38;;
59054;SDS011;44845;51.444;7.460;2023-01-29T01:07:27;40.78;;;21.92;;
59054;SDS011;44845;51.444;7.460;2023-01-29T01:09:54;41.63;;;21.05;;
59054;SDS011;44845;51.444;7.460;2023-01-29T01:12:38;44.75;;;23.50;;
59054;SDS011;44845;51.444;7.460;2023-01-29T01:15:03;42.38;;;22.27;;
59054;SDS011;44845;51.444;7.460;2023-01-29T01:17:29;37.10;;;21.13;;
59054;SDS011;44845;51.444;7.460;2023-01-29T01:19:54;44.50;;;22.30;;
59054;SDS011;44845;51.444;7.460;2023-01-29T01:22:19;40.63;;;20.77;;
59054;SDS011;44845;51.444;7.460;2023-01-29T01:24:45;41.38;;;21.27;;
59054;SDS011;44845;51.444;7.460;2023-01-29T01:27:10;40.92;;;21.75;;
59054;SDS011;44845;51.444;7.460;2023-01-29T01:29:36;37.33;;;20.70;;
59054;SDS011;44845;51.444;7.460;2023-01-29T01:32:01;44.63;;;23.05;;
59054;SDS011;44845;51.444;7.460;2023-01-29T01:34:27;37.58;;;21.40;;
59054;SDS011;44845;51.444;7.460;2023-01-29T01:36:53;42.47;;;21.85;;
59054;SDS011;44845;51.444;7.460;2023-01-29T01:39:22;41.30;;;22.60;;
59054;SDS011;44845;51.444;7.460;2023-01-29T01:41:48;43.15;;;20.92;;
59054;SDS011;44845;51.444;7.460;2023-01-29T01:47:19;43.45;;;23.63;;
59054;SDS011;44845;51.444;7.460;2023-01-29T01:50:06;41.88;;;21.50;;
59054;SDS011;44845;51.444;7.460;2023-01-29T01:52:36;43.47;;;22.63;;
59054;SDS011;44845;51.444;7.460;2023-01-29T01:55:06;44.67;;;22.15;;
59054;SDS011;44845;51.444;7.460;2023-01-29T01:57:33;42.42;;;22.00;;
59054;SDS011;44845;51.444;7.460;2023-01-29T02:00:02;42.88;;;22.77;;
59054;SDS011;44845;51.444;7.460;2023-01-29T02:02:38;43.17;;;22.52;;
59054;SDS011;44845;51.444;7.460;2023-01-29T02:05:24;44.60;;;22.80;;
59054;SDS011;44845;51.444;7.460;2023-01-29T02:08:09;43.55;;;21.73;;
59054;SDS011;44845;51.444;7.460;2023-01-29T02:13:19;40.83;;;20.40;;
59054;SDS011;44845;51.444;7.460;2023-01-29T02:15:45;42.88;;;23.25;;
59054;SDS011;44845;51.444;7.460;2023-01-29T02:18:13;43.03;;;21.95;;
59054;SDS011;44845;51.444;7.460;2023-01-29T02:20:43;42.25;;;22.80;;
59054;SDS011;44845;51.444;7.460;2023-01-29T02:23:25;47.53;;;22.88;;
59054;SDS011;44845;51.444;7.460;2023-01-29T02:35:09;41.60;;;22.55;;
59054;SDS011;44845;51.444;7.460;2023-01-29T02:40:50;45.97;;;22.33;;
59054;SDS011;44845;51.444;7.460;2023-01-29T02:45:59;44.20;;;23.90;;
59054;SDS011;44845;51.444;7.460;2023-01-29T02:54:26;42.13;;;22.13;;
59054;SDS011;44845;51.444;7.460;2023-01-29T02:57:01;44.42;;;23.42;;
59054;SDS011;44845;51.444;7.460;2023-01-29T02:59:34;43.97;;;22.30;;
59054;SDS011;44845;51.444;7.460;2023-01-29T03:02:07;44.88;;;23.27;;
59054;SDS011;44845;51.444;7.460;2023-01-29T03:04:38;45.38;;;22.38;;
59054;SDS011;44845;51.444;7.460;2023-01-29T03:07:13;51.33;;;25.40;;
59054;SDS011;44845;51.444;7.460;2023-01-29T03:10:02;48.10;;;25.38;;
59054;SDS011;44845;51.444;7.460;2023-01-29T03:12:33;47.10;;;23.58;;
59054;SDS011;44845;51.444;7.460;2023-01-29T03:15:15;47.42;;;23.98;;
59054;SDS011;44845;51.444;7.460;2023-01-29T03:20:52;46.88;;;23.83;;
59054;SDS011;44845;51.444;7.460;2023-01-29T03:23:29;44.40;;;23.17;;
59054;SDS011;44845;51.444;7.460;2023-01-29T03:26:19;47.42;;;23.67;;
59054;SDS011;44845;51.444;7.460;2023-01-29T03:29:05;49.53;;;24.75;;
59054;SDS011;44845;51.444;7.460;2023-01-29T03:31:52;51.95;;;24.10;;
59054;SDS011;44845;51.444;7.460;2023-01-29T03:34:33;49.05;;;25.20;;
59054;SDS011;44845;51.444;7.460;2023-01-29T03:37:09;45.03;;;24.00;;
59054;SDS011;44845;51.444;7.460;2023-01-29T03:39:39;50.13;;;24.75;;
59054;SDS011;44845;51.444;7.460;2023-01-29T03:44:59;50.97;;;24.58;;
59054;SDS011;44845;51.444;7.460;2023-01-29T03:47:45;47.33;;;24.95;;
59054;SDS011;44845;51.444;7.460;2023-01-29T03:53:07;46.67;;;23.70;;
59054;SDS011;44845;51.444;7.460;2023-01-29T03:58:41;50.95;;;25.25;;
59054;SDS011;44845;51.444;7.460;2023-01-29T04:01:14;48.97;;;25.00;;
59054;SDS011;44845;51.444;7.460;2023-01-29T04:03:47;53.33;;;26.75;;
59054;SDS011;44845;51.444;7.460;2023-01-29T04:06:19;50.53;;;26.30;;
59054;SDS011;44845;51.444;7.460;2023-01-29T04:11:25;52.42;;;26.00;;
59054;SDS011;44845;51.444;7.460;2023-01-29T04:13:53;53.03;;;26.38;;
59054;SDS011;44845;51.444;7.460;2023-01-29T04:16:21;53.58;;;26.92;;
59054;SDS011;44845;51.444;7.460;2023-01-29T04:18:52;50.60;;;25.45;;
59054;SDS011;44845;51.444;7.460;2023-01-29T04:21:18;56.30;;;27.13;;
59054;SDS011;44845;51.444;7.460;2023-01-29T04:23:44;59.95;;;28.08;;
59054;SDS011;44845;51.444;7.460;2023-01-29T04:31:49;55.80;;;25.92;;
59054;SDS011;44845;51.444;7.460;2023-01-29T04:34:22;52.88;;;26.35;;
59054;SDS011;44845;51.444;7.460;2023-01-29T04:37:01;52.90;;;26.17;;
59054;SDS011;44845;51.444;7.460;2023-01-29T04:39:36;55.35;;;26.45;;
59054;SDS011;44845;51.444;7.460;2023-01-29T04:42:19;54.83;;;27.70;;
59054;SDS011;44845;51.444;7.460;2023-01-29T04:50:03;55.75;;;26.67;;
59054;SDS011;44845;51.444;7.460;2023-01-29T04:55:24;54.08;;;26.95;;
59054;SDS011;44845;51.444;7.460;2023-01-29T05:00:31;51.72;;;27.08;;
59054;SDS011;44845;51.444;7.460;2023-01-29T05:02:59;55.08;;;27.38;;
59054;SDS011;44845;51.444;7.460;2023-01-29T05:05:26;51.15;;;26.80;;
59054;SDS011;44845;51.444;7.460;2023-01-29T05:07:52;49.33;;;25.83;;
59054;SDS011;44845;51.444;7.460;2023-01-29T05:10:21;52.00;;;26.50;;
59054;SDS011;44845;51.444;7.460;2023-01-29T05:12:52;55.92;;;26.05;;
59054;SDS011;44845;51.444;7.460;2023-01-29T05:15:24;46.65;;;24.77;;
59054;SDS011;44845;51.444;7.460;2023-01-29T05:17:54;50.33;;;25.42;;
59054;SDS011;44845;51.444;7.460;2023-01-29T05:20:26;49.65;;;25.35;;
59054;SDS011;44845;51.444;7.460;2023-01-29T05:22:55;53.10;;;25.73;;
59054;SDS011;44845;51.444;7.460;2023-01-29T05:25:23;48.03;;;25.08;;
59054;SDS011;44845;51.444;7.460;2023-01-29T05:27:50;51.80;;;25.80;;
59054;SDS011;44845;51.444;7.460;2023-01-29T05:30:30;51.65;;;25.77;;
59054;SDS011;44845;51.444;7.460;2023-01-29T05:32:59;51.70;;;25.38;;
59054;SDS011;44845;51.444;7.460;2023-01-29T05:35:25;52.60;;;26.50;;
59054;SDS011;44845;51.444;7.460;2023-01-29T05:37:56;49.63;;;25.13;;
59054;SDS011;44845;51.444;7.460;2023-01-29T05:40:22;47.85;;;25.05;;
59054;SDS011;44845;51.444;7.460;2023-01-29T05:42:49;46.92;;;23.88;;
59054;SDS011;44845;51.444;7.460;2023-01-29T05:45:15;50.15;;;24.50;;
59054;SDS011;44845;51.444;7.460;2023-01-29T05:47:41;49.55;;;24.92;;
59054;SDS011;44845;51.444;7.460;2023-01-29T05:50:07;51.97;;;24.85;;
59054;SDS011;44845;51.444;7.460;2023-01-29T05:52:32;48.20;;;24.38;;
59054;SDS011;44845;51.444;7.460;2023-01-29T05:54:58;46.95;;;22.90;;
59054;SDS011;44845;51.444;7.460;2023-01-29T05:57:23;46.08;;;24.42;;
59054;SDS011;44845;51.444;7.460;2023-01-29T05:59:48;45.55;;;23.08;;
59054;SDS011;44845;51.444;7.460;2023-01-29T06:02:14;44.40;;;22.90;;
59054;SDS011;44845;51.444;7.460;2023-01-29T06:04:39;47.72;;;24.30;;
59054;SDS011;44845;51.444;7.460;2023-01-29T06:07:04;50.33;;;24.23;;
59054;SDS011;44845;51.444;7.460;2023-01-29T06:09:30;49.72;;;24.73;;
59054;SDS011;44845;51.444;7.460;2023-01-29T06:11:55;46.40;;;23.42;;
59054;SDS011;44845;51.444;7.460;2023-01-29T06:14:21;44.15;;;22.30;;
59054;SDS011;44845;51.444;7.460;2023-01-29T06:16:46;47.83;;;22.67;;
59054;SDS011;44845;51.444;7.460;2023-01-29T06:19:11;50.97;;;24.23;;
59054;SDS011;44845;51.444;7.460;2023-01-29T06:21:37;45.50;;;23.20;;
59054;SDS011;44845;51.444;7.460;2023-01-29T06:24:02;46.83;;;23.63;;
59054;SDS011;44845;51.444;7.460;2023-01-29T06:26:27;48.78;;;22.85;;
59054;SDS011;44845;51.444;7.460;2023-01-29T06:28:53;47.72;;;23.20;;
59054;SDS011;44845;51.444;7.460;2023-01-29T06:31:18;46.05;;;22.73;;
59054;SDS011;44845;51.444;7.460;2023-01-29T06:33:43;45.50;;;22.90;;
59054;SDS011;44845;51.444;7.460;2023-01-29T06:36:09;45.42;;;23.95;;
59054;SDS011;44845;51.444;7.460;2023-01-29T06:38:34;46.67;;;22.67;;
59054;SDS011;44845;51.444;7.460;2023-01-29T06:41:06;47.67;;;23.55;;
59054;SDS011;44845;51.444;7.460;2023-01-29T06:43:33;47.00;;;23.13;;
59054;SDS011;44845;51.444;7.460;2023-01-29T06:45:58;49.60;;;24.20;;
59054;SDS011;44845;51.444;7.460;2023-01-29T06:48:24;46.35;;;23.05;;
59054;SDS011;44845;51.444;7.460;2023-01-29T06:50:49;49.60;;;24.15;;
59054;SDS011;44845;51.444;7.460;2023-01-29T06:53:15;47.38;;;23.90;;
59054;SDS011;44845;51.444;7.460;2023-01-29T06:55:42;45.83;;;23.27;;
59054;SDS011;44845;51.444;7.460;2023-01-29T06:58:09;46.05;;;22.75;;
59054;SDS011;44845;51.444;7.460;2023-01-29T07:00:35;49.58;;;24.33;;
59054;SDS011;44845;51.444;7.460;2023-01-29T07:03:01;44.10;;;23.08;;
59054;SDS011;44845;51.444;7.460;2023-01-29T07:05:27;42.97;;;21.80;;
59054;SDS011;44845;51.444;7.460;2023-01-29T07:07:53;45.13;;;23.20;;
59054;SDS011;44845;51.444;7.460;2023-01-29T07:10:18;47.05;;;23.20;;
59054;SDS011;44845;51.444;7.460;2023-01-29T07:12:43;45.08;;;22.38;;
59054;SDS011;44845;51.444;7.460;2023-01-29T07:15:09;44.20;;;22.40;;
59054;SDS011;44845;51.444;7.460;2023-01-29T07:17:36;47.72;;;23.08;;
59054;SDS011;44845;51.444;7.460;2023-01-29T07:20:02;42.00;;;22.13;;
59054;SDS011;44845;51.444;7.460;2023-01-29T07:22:27;46.55;;;23.15;;
59054;SDS011;44845;51.444;7.460;2023-01-29T07:24:53;45.88;;;23.83;;
59054;SDS011;44845;51.444;7.460;2023-01-29T07:27:18;49.50;;;23.38;;
59054;SDS011;44845;51.444;7.460;2023-01-29T07:29:43;48.03;;;23.67;;
59054;SDS011;44845;51.444;7.460;2023-01-29T07:32:09;48.95;;;24.33;;
59054;SDS011;44845;51.444;7.460;2023-01-29T07:34:34;45.67;;;23.27;;
59054;SDS011;44845;51.444;7.460;2023-01-29T07:37:00;46.08;;;23.10;;
59054;SDS011;44845;51.444;7.460;2023-01-29T07:39:25;45.33;;;22.38;;
59054;SDS011;44845;51.444;7.460;2023-01-29T07:41:51;43.83;;;22.75;;
59054;SDS011;44845;51.444;7.460;2023-01-29T07:44:16;44.90;;;22.42;;
59054;SDS011;44845;51.444;7.460;2023-01-29T07:46:41;48.70;;;23.50;;
59054;SDS011;44845;51.444;7.460;2023-01-29T07:49:07;47.17;;;23.13;;
59054;SDS011;44845;51.444;7.460;2023-01-29T07:51:32;47.08;;;23.75;;
59054;SDS011;44845;51.444;7.460;2023-01-29T07:53:58;48.47;;;24.05;;
59054;SDS011;44845;51.444;7.460;2023-01-29T07:56:23;46.03;;;23.48;;
59054;SDS011;44845;51.444;7.460;2023-01-29T07:58:48;47.05;;;23.92;;
59054;SDS011;44845;51.444;7.460;2023-01-29T08:01:14;46.55;;;23.75;;
59054;SDS011;44845;51.444;7.460;2023-01-29T08:03:40;46.63;;;23.90;;
59054;SDS011;44845;51.444;7.460;2023-01-29T08:06:05;46.05;;;23.65;;
59054;SDS011;44845;51.444;7.460;2023-01-29T08:08:31;48.53;;;23.95;;
59054;SDS011;44845;51.444;7.460;2023-01-29T08:10:59;48.38;;;23.05;;
59054;SDS011;44845;51.444;7.460;2023-01-29T08:13:25;46.53;;;24.05;;
59054;SDS011;44845;51.444;7.460;2023-01-29T08:15:51;42.30;;;22.30;;
59054;SDS011;44845;51.444;7.460;2023-01-29T08:18:16;46.65;;;23.48;;
59054;SDS011;44845;51.444;7.460;2023-01-29T08:20:41;46.45;;;22.92;;
59054;SDS011;44845;51.444;7.460;2023-01-29T08:23:09;43.28;;;22.00;;
59054;SDS011;44845;51.444;7.460;2023-01-29T08:25:40;47.58;;;23.77;;
59054;SDS011;44845;51.444;7.460;2023-01-29T08:28:05;47.10;;;23.77;;
59054;SDS011;44845;51.444;7.460;2023-01-29T08:30:32;45.60;;;22.38;;
59054;SDS011;44845;51.444;7.460;2023-01-29T08:32:58;47.05;;;23.45;;
59054;SDS011;44845;51.444;7.460;2023-01-29T08:35:24;46.50;;;23.23;;
59054;SDS011;44845;51.444;7.460;2023-01-29T08:37:54;45.55;;;23.73;;
59054;SDS011;44845;51.444;7.460;2023-01-29T08:40:21;44.28;;;22.67;;
59054;SDS011;44845;51.444;7.460;2023-01-29T08:42:47;47.00;;;23.38;;
59054;SDS011;44845;51.444;7.460;2023-01-29T08:45:12;47.45;;;23.98;;
59054;SDS011;44845;51.444;7.460;2023-01-29T08:47:42;48.75;;;22.90;;
59054;SDS011;44845;51.444;7.460;2023-01-29T08:50:09;45.00;;;23.25;;
59054;SDS011;44845;51.444;7.460;2023-01-29T08:52:35;43.33;;;21.92;;
59054;SDS011;44845;51.444;7.460;2023-01-29T08:55:00;43.90;;;21.95;;
59054;SDS011;44845;51.444;7.460;2023-01-29T08:57:26;47.03;;;24.15;;
59054;SDS011;44845;51.444;7.460;2023-01-29T08:59:51;44.53;;;21.75;;
59054;SDS011;44845;51.444;7.460;2023-01-29T09:02:16;43.45;;;22.45;;
59054;SDS011;44845;51.444;7.460;2023-01-29T09:04:42;45.58;;;22.98;;
59054;SDS011;44845;51.444;7.460;2023-01-29T09:07:07;47.25;;;23.02;;
59054;SDS011;44845;51.444;7.460;2023-01-29T09:09:32;49.92;;;23.45;;
59054;SDS011;44845;51.444;7.460;2023-01-29T09:11:58;46.60;;;23.17;;
59054;SDS011;44845;51.444;7.460;2023-01-29T09:14:23;43.17;;;22.00;;
59054;SDS011;44845;51.444;7.460;2023-01-29T09:16:48;49.30;;;23.95;;
59054;SDS011;44845;51.444;7.460;2023-01-29T09:19:14;44.42;;;22.70;;
59054;SDS011;44845;51.444;7.460;2023-01-29T09:21:39;42.75;;;21.58;;
59054;SDS011;44845;51.444;7.460;2023-01-29T09:24:04;63.63;;;26.92;;
59054;SDS011;44845;51.444;7.460;2023-01-29T09:26:30;50.60;;;24.15;;
59054;SDS011;44845;51.444;7.460;2023-01-29T09:28:55;41.95;;;22.40;;
59054;SDS011;44845;51.444;7.460;2023-01-29T09:31:21;44.08;;;23.35;;
59054;SDS011;44845;51.444;7.460;2023-01-29T09:33:46;42.67;;;22.75;;
59054;SDS011;44845;51.444;7.460;2023-01-29T09:36:11;44.30;;;22.40;;
59054;SDS011;44845;51.444;7.460;2023-01-29T09:38:37;49.40;;;24.20;;
59054;SDS011;44845;51.444;7.460;2023-01-29T09:41:05;45.13;;;24.23;;
59054;SDS011;44845;51.444;7.460;2023-01-29T09:43:56;42.40;;;23.10;;
59054;SDS011;44845;51.444;7.460;2023-01-29T09:46:34;44.67;;;24.10;;
59054;SDS011;44845;51.444;7.460;2023-01-29T09:49:05;43.30;;;23.88;;
59054;SDS011;44845;51.444;7.460;2023-01-29T09:51:45;44.05;;;23.42;;
59054;SDS011;44845;51.444;7.460;2023-01-29T09:54:17;45.38;;;23.48;;
59054;SDS011;44845;51.444;7.460;2023-01-29T09:56:56;42.22;;;23.35;;
59054;SDS011;44845;51.444;7.460;2023-01-29T09:59:31;42.65;;;23.83;;
59054;SDS011;44845;51.444;7.460;2023-01-29T10:07:41;45.13;;;23.10;;
59054;SDS011;44845;51.444;7.460;2023-01-29T10:10:25;44.08;;;21.88;;
59054;SDS011;44845;51.444;7.460;2023-01-29T10:13:17;45.65;;;22.63;;
59054;SDS011;44845;51.444;7.460;2023-01-29T10:24:15;43.00;;;22.55;;
59054;SDS011;44845;51.444;7.460;2023-01-29T10:26:42;41.72;;;21.95;;
59054;SDS011;44845;51.444;7.460;2023-01-29T10:29:09;47.72;;;22.77;;
59054;SDS011;44845;51.444;7.460;2023-01-29T10:31:40;44.75;;;23.17;;
59054;SDS011;44845;51.444;7.460;2023-01-29T10:34:52;45.58;;;23.45;;
59054;SDS011;44845;51.444;7.460;2023-01-29T10:36:59;42.92;;;22.55;;
59054;SDS011;44845;51.444;7.460;2023-01-29T10:39:35;41.45;;;22.27;;
59054;SDS011;44845;51.444;7.460;2023-01-29T10:50:51;47.78;;;23.40;;
59054;SDS011;44845;51.444;7.460;2023-01-29T10:56:52;44.60;;;23.17;;
59054;SDS011;44845;51.444;7.460;2023-01-29T11:02:14;43.60;;;23.15;;
59054;SDS011;44845;51.444;7.460;2023-01-29T11:04:41;43.38;;;23.70;;
59054;SDS011;44845;51.444;7.460;2023-01-29T11:07:07;44.92;;;24.23;;
59054;SDS011;44845;51.444;7.460;2023-01-29T11:09:34;44.10;;;23.70;;
59054;SDS011;44845;51.444;7.460;2023-01-29T11:12:13;42.35;;;23.65;;
59054;SDS011;44845;51.444;7.460;2023-01-29T11:14:43;45.53;;;23.27;;
59054;SDS011;44845;51.444;7.460;2023-01-29T11:17:20;42.33;;;22.63;;
59054;SDS011;44845;51.444;7.460;2023-01-29T11:19:48;44.47;;;23.35;;
59054;SDS011;44845;51.444;7.460;2023-01-29T11:22:19;44.30;;;23.98;;
59054;SDS011;44845;51.444;7.460;2023-01-29T11:27:51;38.75;;;21.70;;
59054;SDS011;44845;51.444;7.460;2023-01-29T11:30:34;42.47;;;22.40;;
59054;SDS011;44845;51.444;7.460;2023-01-29T11:35:45;41.45;;;22.58;;
59054;SDS011;44845;51.444;7.460;2023-01-29T11:38:26;46.35;;;23.60;;
59054;SDS011;44845;51.444;7.460;2023-01-29T11:41:06;42.33;;;23.58;;
59054;SDS011;44845;51.444;7.460;2023-01-29T11:43:42;43.38;;;22.85;;
59054;SDS011;44845;51.444;7.460;2023-01-29T11:46:10;43.15;;;23.15;;
59054;SDS011;44845;51.444;7.460;2023-01-29T11:48:39;45.63;;;23.45;;
59054;SDS011;44845;51.444;7.460;2023-01-29T11:51:05;43.15;;;22.80;;
59054;SDS011;44845;51.444;7.460;2023-01-29T11:53:33;40.00;;;21.48;;
59054;SDS011;44845;51.444;7.460;2023-01-29T11:56:05;42.90;;;23.05;;
59054;SDS011;44845;51.444;7.460;2023-01-29T11:58:43;44.78;;;22.83;;
59054;SDS011;44845;51.444;7.460;2023-01-29T12:01:10;40.00;;;22.05;;
59054;SDS011;44845;51.444;7.460;2023-01-29T12:03:40;41.58;;;21.48;;
59054;SDS011;44845;51.444;7.460;2023-01-29T12:06:19;35.83;;;19.75;;
59054;SDS011;44845;51.444;7.460;2023-01-29T12:08:53;39.90;;;21.08;;
59054;SDS011;44845;51.444;7.460;2023-01-29T12:11:32;36.13;;;20.95;;
59054;SDS011;44845;51.444;7.460;2023-01-29T12:13:59;38.60;;;21.05;;
59054;SDS011;44845;51.444;7.460;2023-01-29T12:16:31;38.13;;;21.25;;
59054;SDS011;44845;51.444;7.460;2023-01-29T12:19:12;38.03;;;21.15;;
59054;SDS011;44845;51.444;7.460;2023-01-29T12:21:49;34.33;;;19.95;;
59054;SDS011;44845;51.444;7.460;2023-01-29T12:27:30;36.25;;;20.70;;
59054;SDS011;44845;51.444;7.460;2023-01-29T12:29:43;33.00;;;18.92;;
59054;SDS011;44845;51.444;7.460;2023-01-29T12:32:31;38.45;;;20.20;;
59054;SDS011;44845;51.444;7.460;2023-01-29T12:35:06;37.25;;;20.65;;
59054;SDS011;44845;51.444;7.460;2023-01-29T12:40:20;31.60;;;18.55;;
59054;SDS011;44845;51.444;7.460;2023-01-29T12:42:52;38.17;;;20.08;;
59054;SDS011;44845;51.444;7.460;2023-01-29T12:45:24;33.38;;;18.73;;
59054;SDS011;44845;51.444;7.460;2023-01-29T12:47:54;36.65;;;20.27;;
59054;SDS011;44845;51.444;7.460;2023-01-29T12:50:26;35.20;;;20.33;;
59054;SDS011;44845;51.444;7.460;2023-01-29T12:52:59;35.25;;;19.27;;
59054;SDS011;44845;51.444;7.460;2023-01-29T12:58:13;32.55;;;18.65;;
59054;SDS011;44845;51.444;7.460;2023-01-29T13:00:44;36.28;;;19.98;;
59054;SDS011;44845;51.444;7.460;2023-01-29T13:03:20;31.52;;;17.92;;
59054;SDS011;44845;51.444;7.460;2023-01-29T13:05:52;30.33;;;17.67;;
59054;SDS011;44845;51.444;7.460;2023-01-29T13:11:16;30.65;;;17.02;;
59054;SDS011;44845;51.444;7.460;2023-01-29T13:13:58;33.63;;;18.15;;
59054;SDS011;44845;51.444;7.460;2023-01-29T13:16:29;28.70;;;17.27;;
59054;SDS011;44845;51.444;7.460;2023-01-29T13:19:02;34.67;;;18.50;;
59054;SDS011;44845;51.444;7.460;2023-01-29T13:21:33;30.25;;;17.05;;
59054;SDS011;44845;51.444;7.460;2023-01-29T13:24:03;30.98;;;17.67;;
59054;SDS011;44845;51.444;7.460;2023-01-29T13:26:46;32.92;;;17.17;;
59054;SDS011;44845;51.444;7.460;2023-01-29T13:29:22;31.25;;;18.65;;
59054;SDS011;44845;51.444;7.460;2023-01-29T13:31:49;31.40;;;17.83;;
59054;SDS011;44845;51.444;7.460;2023-01-29T13:34:24;31.50;;;18.63;;
59054;SDS011;44845;51.444;7.460;2023-01-29T13:36:56;33.10;;;18.02;;
59054;SDS011;44845;51.444;7.460;2023-01-29T13:41:54;33.70;;;19.40;;
59054;SDS011;44845;51.444;7.460;2023-01-29T13:46:56;33.38;;;18.63;;
59054;SDS011;44845;51.444;7.460;2023-01-29T13:51:55;34.22;;;18.58;;
59054;SDS011;44845;51.444;7.460;2023-01-29T13:54:22;32.72;;;18.67;;
59054;SDS011;44845;51.444;7.460;2023-01-29T14:00:09;33.40;;;19.13;;
59054;SDS011;44845;51.444;7.460;2023-01-29T14:04:49;34.38;;;19.48;;
59054;SDS011;44845;51.444;7.460;2023-01-29T14:07:37;38.08;;;20.27;;
59054;SDS011;44845;51.444;7.460;2023-01-29T14:10:19;34.53;;;19.38;;
59054;SDS011;44845;51.444;7.460;2023-01-29T14:12:46;38.00;;;19.05;;
59054;SDS011;44845;51.444;7.460;2023-01-29T14:17:59;40.15;;;19.65;;
59054;SDS011;44845;51.444;7.460;2023-01-29T14:20:30;34.28;;;18.48;;
59054;SDS011;44845;51.444;7.460;2023-01-29T14:22:58;34.97;;;18.85;;
59054;SDS011;44845;51.444;7.460;2023-01-29T14:25:29;32.55;;;19.13;;
59054;SDS011;44845;51.444;7.460;2023-01-29T14:27:58;32.53;;;17.27;;
59054;SDS011;44845;51.444;7.460;2023-01-29T14:30:26;34.97;;;17.50;;
59054;SDS011;44845;51.444;7.460;2023-01-29T14:32:56;33.03;;;18.73;;
59054;SDS011;44845;51.444;7.460;2023-01-29T14:35:22;32.42;;;18.35;;
59054;SDS011;44845;51.444;7.460;2023-01-29T14:37:53;33.58;;;17.83;;
59054;SDS011;44845;51.444;7.460;2023-01-29T14:40:26;34.13;;;17.30;;
59054;SDS011;44845;51.444;7.460;2023-01-29T14:45:30;30.08;;;17.00;;
59054;SDS011;44845;51.444;7.460;2023-01-29T14:53:20;29.80;;;16.95;;
59054;SDS011;44845;51.444;7.460;2023-01-29T14:58:33;30.92;;;17.23;;
59054;SDS011;44845;51.444;7.460;2023-01-29T15:01:03;32.88;;;16.63;;
59054;SDS011;44845;51.444;7.460;2023-01-29T15:03:36;28.35;;;16.45;;
59054;SDS011;44845;51.444;7.460;2023-01-29T15:06:34;29.35;;;17.00;;
59054;SDS011;44845;51.444;7.460;2023-01-29T15:11:44;32.67;;;16.80;;
59054;SDS011;44845;51.444;7.460;2023-01-29T15:19:22;27.23;;;15.13;;
59054;SDS011;44845;51.444;7.460;2023-01-29T15:22:09;26.10;;;15.32;;
59054;SDS011;44845;51.444;7.460;2023-01-29T15:24:35;30.15;;;15.65;;
59054;SDS011;44845;51.444;7.460;2023-01-29T15:27:01;30.10;;;15.70;;
59054;SDS011;44845;51.444;7.460;2023-01-29T15:29:27;26.83;;;14.70;;
59054;SDS011;44845;51.444;7.460;2023-01-29T15:31:54;27.80;;;14.32;;
59054;SDS011;44845;51.444;7.460;2023-01-29T15:34:20;23.92;;;13.45;;
59054;SDS011;44845;51.444;7.460;2023-01-29T15:36:46;23.20;;;13.50;;
59054;SDS011;44845;51.444;7.460;2023-01-29T15:41:38;27.08;;;13.23;;
59054;SDS011;44845;51.444;7.460;2023-01-29T15:44:07;22.27;;;12.10;;
59054;SDS011;44845;51.444;7.460;2023-01-29T15:46:38;20.45;;;11.57;;
59054;SDS011;44845;51.444;7.460;2023-01-29T15:49:06;23.23;;;12.07;;
59054;SDS011;44845;51.444;7.460;2023-01-29T15:51:34;23.77;;;12.75;;
59054;SDS011;44845;51.444;7.460;2023-01-29T15:54:04;19.52;;;11.00;;
59054;SDS011;44845;51.444;7.460;2023-01-29T15:56:38;18.90;;;10.98;;
59054;SDS011;44845;51.444;7.460;2023-01-29T15:59:07;19.85;;;10.77;;
59054;SDS011;44845;51.444;7.460;2023-01-29T16:01:40;17.40;;;10.67;;
59054;SDS011;44845;51.444;7.460;2023-01-29T16:04:07;20.73;;;10.48;;
59054;SDS011;44845;51.444;7.460;2023-01-29T16:06:39;21.98;;;11.07;;
59054;SDS011;44845;51.444;7.460;2023-01-29T16:09:05;22.45;;;11.55;;
59054;SDS011;44845;51.444;7.460;2023-01-29T16:11:32;19.55;;;11.77;;
59054;SDS011;44845;51.444;7.460;2023-01-29T16:13:59;23.77;;;11.25;;
59054;SDS011;44845;51.444;7.460;2023-01-29T16:16:26;22.17;;;11.82;;
59054;SDS011;44845;51.444;7.460;2023-01-29T16:18:52;20.08;;;11.77;;
59054;SDS011;44845;51.444;7.460;2023-01-29T16:21:23;21.73;;;12.80;;
59054;SDS011;44845;51.444;7.460;2023-01-29T16:23:55;23.70;;;12.68;;
59054;SDS011;44845;51.444;7.460;2023-01-29T16:26:33;24.30;;;13.68;;
59054;SDS011;44845;51.444;7.460;2023-01-29T16:31:34;28.25;;;12.98;;
59054;SDS011;44845;51.444;7.460;2023-01-29T16:34:04;23.73;;;13.10;;
59054;SDS011;44845;51.444;7.460;2023-01-29T16:36:31;25.17;;;12.98;;
59054;SDS011;44845;51.444;7.460;2023-01-29T16:38:57;25.50;;;14.05;;
59054;SDS011;44845;51.444;7.460;2023-01-29T16:43:53;26.10;;;14.43;;
59054;SDS011;44845;51.444;7.460;2023-01-29T16:46:25;25.55;;;14.15;;
59054;SDS011;44845;51.444;7.460;2023-01-29T16:48:59;22.42;;;13.43;;
59054;SDS011;44845;51.444;7.460;2023-01-29T16:53:58;25.77;;;14.18;;
59054;SDS011;44845;51.444;7.460;2023-01-29T16:56:31;27.38;;;13.50;;
59054;SDS011;44845;51.444;7.460;2023-01-29T16:58:57;25.58;;;14.25;;
59054;SDS011;44845;51.444;7.460;2023-01-29T17:01:24;27.10;;;14.48;;
59054;SDS011;44845;51.444;7.460;2023-01-29T17:04:03;27.05;;;14.48;;